Weather reports worldwide

Advertisment
Great Dun Fell, United Kingdom (3227): temperature & dewpoint: 25.10.2020 04:00:00 - 31.10.2020 04:00:00 (GMT)Great Dun Fell, United Kingdom (3227): wind speed & gusts: 25.10.2020 04:00:00 - 31.10.2020 04:00:00 (GMT)Great Dun Fell, United Kingdom (3227): wind direction: 25.10.2020 04:00:00 - 31.10.2020 04:00:00 (GMT)
Date & Time tt [°C] td [°C] ff [km/h] ff [kn] fx [km/h] fx [kn] dd
31.10.2020 04:00:00 7,5 - 57 31 80 43 S
31.10.2020 03:00:00 4,5 - 50 27 68 37 SSE
31.10.2020 02:00:00 3,7 - 54 29 61 33 SSE
31.10.2020 01:00:00 3,1 - 39 21 48 26 SSE
31.10.2020 00:00:00 3,1 - 34 18 - - S
30.10.2020 23:00:00 3,0 - 28 15 - - S
30.10.2020 22:00:00 2,5 - 22 12 - - SSW
30.10.2020 21:00:00 2,4 - 11 6 - - SSW
30.10.2020 20:00:00 2,6 - 21 11 - - WSW
30.10.2020 19:00:00 2,8 - 22 12 - - WSW
30.10.2020 18:00:00 3,1 - 26 14 - - W
30.10.2020 17:00:00 3,1 - 37 20 - - W
30.10.2020 16:00:00 3,3 - 39 21 50 27 W
30.10.2020 15:00:00 4,3 - 44 24 59 32 W
30.10.2020 14:00:00 4,1 - 50 27 57 31 W
30.10.2020 13:00:00 4,2 - 41 22 63 34 W
30.10.2020 12:00:00 4,9 - 54 29 74 40 W
30.10.2020 11:00:00 5,0 - 57 31 70 38 W
30.10.2020 10:00:00 5,5 - 54 29 67 36 W
30.10.2020 09:00:00 6,2 - 54 29 67 36 W
30.10.2020 08:00:00 6,2 - 61 33 74 40 W
30.10.2020 07:00:00 7,1 - 68 37 85 46 W
30.10.2020 06:00:00 7,9 - 74 40 83 45 W
30.10.2020 05:00:00 8,3 - 67 36 94 51 WSW
30.10.2020 04:00:00 8,4 - 91 49 106 57 W
30.10.2020 03:00:00 8,7 - 85 46 106 57 WSW
30.10.2020 02:00:00 8,9 - 89 48 102 55 WSW
30.10.2020 01:00:00 9,1 - 78 42 96 52 WSW
30.10.2020 00:00:00 9,0 - 81 44 96 52 WSW
29.10.2020 23:00:00 8,8 - 83 45 104 56 WSW
29.10.2020 22:00:00 8,8 - 93 50 104 56 SW
29.10.2020 21:00:00 8,7 - 89 48 107 58 WSW
29.10.2020 20:00:00 8,7 - 94 51 111 60 WSW
29.10.2020 19:00:00 8,7 - 80 43 94 51 WSW
29.10.2020 18:00:00 8,6 - 76 41 93 50 WSW
29.10.2020 17:00:00 8,5 - 72 39 89 48 WSW
29.10.2020 16:00:00 8,4 - 78 42 96 52 WSW
29.10.2020 15:00:00 8,3 - 83 45 94 51 SW
29.10.2020 14:00:00 7,3 7,3 68 37 83 45 SW
29.10.2020 13:00:00 6,3 6,3 63 34 78 42 SW
29.10.2020 12:00:00 5,6 5,6 55 30 67 36 SSW
29.10.2020 11:00:00 5,6 5,4 50 27 63 34 SSW
29.10.2020 10:00:00 4,0 3,8 44 24 54 29 SSW
29.10.2020 09:00:00 3,1 2,9 48 26 59 32 SW
29.10.2020 08:00:00 3,2 3,1 52 28 61 33 SW
29.10.2020 07:00:00 2,3 2,2 48 26 55 30 SW
29.10.2020 06:00:00 1,7 1,5 44 24 52 28 WSW
29.10.2020 05:00:00 1,7 1,5 46 25 65 35 WSW
29.10.2020 04:00:00 2,1 1,9 55 30 67 36 WSW
29.10.2020 03:00:00 2,3 2,2 52 28 74 40 WSW
29.10.2020 02:00:00 2,4 2,3 59 32 68 37 W
29.10.2020 01:00:00 2,5 2,3 52 28 80 43 W
29.10.2020 00:00:00 2,6 2,4 67 36 80 43 W
28.10.2020 23:00:00 2,3 2,1 59 32 74 40 WSW
28.10.2020 22:00:00 2,0 1,8 55 30 68 37 WSW
28.10.2020 21:00:00 1,4 1,2 48 26 63 34 WSW
28.10.2020 20:00:00 1,6 1,5 41 22 63 34 WSW
28.10.2020 19:00:00 1,6 1,5 39 21 61 33 WSW
28.10.2020 18:00:00 1,4 1,2 52 28 68 37 WSW
28.10.2020 17:00:00 1,4 1,3 52 28 67 36 WSW
28.10.2020 16:00:00 2,0 1,9 50 27 65 35 SW
28.10.2020 15:00:00 1,9 1,8 54 29 70 38 SW
28.10.2020 14:00:00 1,9 1,8 55 30 67 36 WSW
28.10.2020 13:00:00 2,2 2,0 48 26 72 39 WSW
28.10.2020 12:00:00 2,7 2,6 44 24 83 45 SW
28.10.2020 11:00:00 2,8 2,6 52 28 68 37 SW
28.10.2020 10:00:00 2,0 1,8 46 25 57 31 SW
28.10.2020 09:00:00 1,5 1,3 54 29 67 36 WSW
28.10.2020 08:00:00 2,1 2,0 50 27 63 34 SW
28.10.2020 07:00:00 2,3 2,1 55 30 72 39 SW
28.10.2020 06:00:00 2,1 2,0 57 31 81 44 SW
28.10.2020 05:00:00 2,4 2,2 59 32 78 42 WSW
28.10.2020 04:00:00 2,7 2,5 52 28 65 35 SW
28.10.2020 03:00:00 2,8 2,7 48 26 54 29 SW
28.10.2020 02:00:00 2,9 2,7 52 28 70 38 WSW
28.10.2020 01:00:00 2,7 2,5 63 34 74 40 SW
28.10.2020 00:00:00 2,1 2,0 61 33 83 45 WSW
27.10.2020 23:00:00 2,0 1,8 55 30 65 35 SW
27.10.2020 22:00:00 1,5 1,3 48 26 57 31 WSW
27.10.2020 21:00:00 1,7 1,5 50 27 70 38 WSW
27.10.2020 20:00:00 1,9 1,7 54 29 80 43 W
27.10.2020 19:00:00 2,4 2,2 52 28 81 44 W
27.10.2020 18:00:00 2,1 2,1 59 32 87 47 W
27.10.2020 17:00:00 2,7 2,7 59 32 78 42 W
27.10.2020 16:00:00 3,7 3,7 65 35 89 48 W
27.10.2020 15:00:00 5,4 5,3 44 24 55 30 SSW
27.10.2020 14:00:00 4,8 4,8 44 24 54 29 S
27.10.2020 13:00:00 4,3 4,3 41 22 48 26 S
27.10.2020 12:00:00 3,9 3,9 41 22 52 28 S
27.10.2020 11:00:00 3,3 3,3 42 23 50 27 S
27.10.2020 10:00:00 2,7 2,7 41 22 48 26 SSW
27.10.2020 09:00:00 2,5 2,5 42 23 52 28 SSW
27.10.2020 08:00:00 2,4 2,4 42 23 50 27 SW
27.10.2020 07:00:00 2,4 2,4 39 21 46 25 SW
27.10.2020 06:00:00 1,9 1,8 29 16 - - WSW
27.10.2020 05:00:00 2,0 1,8 31 17 54 29 WSW
27.10.2020 04:00:00 2,5 2,4 46 25 57 31 WSW
27.10.2020 03:00:00 2,9 2,7 50 27 65 35 WSW
27.10.2020 02:00:00 3,1 2,9 48 26 63 34 W
27.10.2020 01:00:00 3,0 2,9 54 29 67 36 W
27.10.2020 00:00:00 3,2 3,1 48 26 61 33 W
26.10.2020 23:00:00 3,4 3,2 52 28 68 37 W
26.10.2020 22:00:00 3,4 3,2 54 29 68 37 W
26.10.2020 21:00:00 3,3 3,2 48 26 63 34 W
26.10.2020 20:00:00 3,3 3,1 52 28 72 39 W
26.10.2020 19:00:00 3,3 3,2 54 29 72 39 W
26.10.2020 18:00:00 3,7 3,5 57 31 76 41 W
26.10.2020 17:00:00 3,7 3,6 59 32 81 44 W
26.10.2020 16:00:00 3,8 3,7 59 32 85 46 W
26.10.2020 15:00:00 3,3 3,1 63 34 83 45 W
26.10.2020 14:00:00 3,7 3,5 59 32 76 41 W
26.10.2020 13:00:00 3,5 3,3 59 32 98 53 W
26.10.2020 12:00:00 3,9 3,7 67 36 80 43 W
26.10.2020 11:00:00 3,8 3,7 55 30 70 38 W
26.10.2020 10:00:00 3,8 3,7 50 27 74 40 W
26.10.2020 09:00:00 3,4 3,2 42 23 54 29 WSW
26.10.2020 08:00:00 3,6 3,4 37 20 50 27 WSW
26.10.2020 07:00:00 3,4 3,2 44 24 78 42 SW
26.10.2020 06:00:00 3,2 3,0 68 37 81 44 SSW
26.10.2020 05:00:00 3,1 3,0 63 34 80 43 SW
26.10.2020 04:00:00 3,1 2,9 61 33 81 44 SW
26.10.2020 03:00:00 2,8 2,6 67 36 85 46 SW
26.10.2020 02:00:00 2,8 2,6 65 35 78 42 SW
26.10.2020 01:00:00 2,7 2,5 67 36 83 45 SW
26.10.2020 00:00:00 2,4 2,2 59 32 78 42 SW
25.10.2020 23:00:00 2,4 2,3 52 28 81 44 SW
25.10.2020 22:00:00 2,6 2,5 63 34 78 42 SSW
25.10.2020 21:00:00 2,5 2,4 65 35 76 41 SSW
25.10.2020 20:00:00 2,5 2,3 61 33 78 42 SSW
25.10.2020 19:00:00 2,4 2,3 57 31 78 42 SSW
25.10.2020 18:00:00 3,0 2,9 57 31 78 42 SSW
25.10.2020 17:00:00 3,2 3,1 59 32 78 42 SW
25.10.2020 16:00:00 3,3 3,1 59 32 78 42 SW
25.10.2020 15:00:00 3,4 3,2 67 36 91 49 SW
25.10.2020 14:00:00 3,4 3,2 67 36 93 50 SW
25.10.2020 13:00:00 3,2 3,1 59 32 85 46 SW
25.10.2020 12:00:00 3,1 3,0 67 36 91 49 SW
25.10.2020 11:00:00 3,1 2,9 74 40 87 47 SW
25.10.2020 10:00:00 2,6 2,4 65 35 89 48 SW
25.10.2020 09:00:00 2,4 2,2 72 39 100 54 SW
25.10.2020 08:00:00 1,7 1,6 81 44 111 60 SW
25.10.2020 07:00:00 1,7 1,6 81 44 104 56 SSW
25.10.2020 06:00:00 1,2 1,0 70 38 102 55 SW
25.10.2020 05:00:00 1,4 1,3 67 36 83 45 SSW
25.10.2020 04:00:00 2,6 2,4 61 33 80 43 SSW

tt = temperature
td = dewpoint
ff = wind speed
fx = gusts
dd = wind direction

Next stations